sensor_id;sensor_type;location;lat;lon;timestamp;P1;durP1;ratioP1;P2;durP2;ratioP2
24663;SDS011;12791;50.992;13.788;2023-02-18T00:00:12;6.78;;;3.40;;
24663;SDS011;12791;50.992;13.788;2023-02-18T00:02:41;5.22;;;3.60;;
24663;SDS011;12791;50.992;13.788;2023-02-18T00:05:08;6.68;;;3.90;;
24663;SDS011;12791;50.992;13.788;2023-02-18T00:07:35;6.45;;;4.47;;
24663;SDS011;12791;50.992;13.788;2023-02-18T00:10:03;5.32;;;4.10;;
24663;SDS011;12791;50.992;13.788;2023-02-18T00:12:31;7.68;;;5.07;;
24663;SDS011;12791;50.992;13.788;2023-02-18T00:14:59;6.45;;;4.88;;
24663;SDS011;12791;50.992;13.788;2023-02-18T00:17:27;6.93;;;5.22;;
24663;SDS011;12791;50.992;13.788;2023-02-18T00:19:54;8.00;;;5.25;;
24663;SDS011;12791;50.992;13.788;2023-02-18T00:22:21;6.65;;;4.78;;
24663;SDS011;12791;50.992;13.788;2023-02-18T00:24:47;6.13;;;4.70;;
24663;SDS011;12791;50.992;13.788;2023-02-18T00:27:14;6.85;;;5.22;;
24663;SDS011;12791;50.992;13.788;2023-02-18T00:29:41;8.18;;;5.57;;
24663;SDS011;12791;50.992;13.788;2023-02-18T00:32:09;7.80;;;5.20;;
24663;SDS011;12791;50.992;13.788;2023-02-18T00:34:36;8.85;;;5.57;;
24663;SDS011;12791;50.992;13.788;2023-02-18T00:37:02;6.78;;;5.47;;
24663;SDS011;12791;50.992;13.788;2023-02-18T00:39:29;8.15;;;6.50;;
24663;SDS011;12791;50.992;13.788;2023-02-18T00:41:55;9.02;;;6.97;;
24663;SDS011;12791;50.992;13.788;2023-02-18T00:44:22;7.93;;;6.05;;
24663;SDS011;12791;50.992;13.788;2023-02-18T00:46:49;8.27;;;7.03;;
24663;SDS011;12791;50.992;13.788;2023-02-18T00:49:16;9.05;;;7.25;;
24663;SDS011;12791;50.992;13.788;2023-02-18T00:51:43;10.05;;;7.18;;
24663;SDS011;12791;50.992;13.788;2023-02-18T00:54:10;8.55;;;7.47;;
24663;SDS011;12791;50.992;13.788;2023-02-18T00:56:36;9.10;;;7.15;;
24663;SDS011;12791;50.992;13.788;2023-02-18T00:59:03;8.60;;;6.80;;
24663;SDS011;12791;50.992;13.788;2023-02-18T01:01:29;8.07;;;6.55;;
24663;SDS011;12791;50.992;13.788;2023-02-18T01:03:56;8.40;;;7.32;;
24663;SDS011;12791;50.992;13.788;2023-02-18T01:06:24;8.43;;;6.55;;
24663;SDS011;12791;50.992;13.788;2023-02-18T01:08:50;6.93;;;6.22;;
24663;SDS011;12791;50.992;13.788;2023-02-18T01:11:17;8.65;;;6.03;;
24663;SDS011;12791;50.992;13.788;2023-02-18T01:13:44;10.63;;;5.57;;
24663;SDS011;12791;50.992;13.788;2023-02-18T01:16:11;6.75;;;4.85;;
24663;SDS011;12791;50.992;13.788;2023-02-18T01:18:38;7.50;;;4.75;;
24663;SDS011;12791;50.992;13.788;2023-02-18T01:21:05;7.13;;;4.63;;
24663;SDS011;12791;50.992;13.788;2023-02-18T01:23:34;7.45;;;4.00;;
24663;SDS011;12791;50.992;13.788;2023-02-18T01:26:01;5.88;;;3.83;;
24663;SDS011;12791;50.992;13.788;2023-02-18T01:28:27;6.13;;;3.47;;
24663;SDS011;12791;50.992;13.788;2023-02-18T01:30:54;7.05;;;3.60;;
24663;SDS011;12791;50.992;13.788;2023-02-18T01:33:20;4.93;;;2.92;;
24663;SDS011;12791;50.992;13.788;2023-02-18T01:35:47;4.95;;;3.08;;
24663;SDS011;12791;50.992;13.788;2023-02-18T01:38:14;4.38;;;2.88;;
24663;SDS011;12791;50.992;13.788;2023-02-18T01:40:46;3.92;;;2.45;;
24663;SDS011;12791;50.992;13.788;2023-02-18T01:43:16;7.50;;;2.60;;
24663;SDS011;12791;50.992;13.788;2023-02-18T01:45:48;4.97;;;2.17;;
24663;SDS011;12791;50.992;13.788;2023-02-18T01:48:18;2.95;;;1.73;;
24663;SDS011;12791;50.992;13.788;2023-02-18T01:50:48;4.60;;;1.70;;
24663;SDS011;12791;50.992;13.788;2023-02-18T01:53:19;3.55;;;1.42;;
24663;SDS011;12791;50.992;13.788;2023-02-18T01:55:52;3.53;;;1.02;;
24663;SDS011;12791;50.992;13.788;2023-02-18T01:58:19;4.00;;;0.95;;
24663;SDS011;12791;50.992;13.788;2023-02-18T02:00:46;2.80;;;0.98;;
24663;SDS011;12791;50.992;13.788;2023-02-18T02:03:12;2.45;;;0.80;;
24663;SDS011;12791;50.992;13.788;2023-02-18T02:05:39;5.47;;;1.17;;
24663;SDS011;12791;50.992;13.788;2023-02-18T02:08:05;3.28;;;1.25;;
24663;SDS011;12791;50.992;13.788;2023-02-18T02:10:36;2.10;;;0.65;;
24663;SDS011;12791;50.992;13.788;2023-02-18T02:13:17;2.60;;;0.70;;
24663;SDS011;12791;50.992;13.788;2023-02-18T02:15:50;4.55;;;1.10;;
24663;SDS011;12791;50.992;13.788;2023-02-18T02:21:29;2.67;;;0.50;;
24663;SDS011;12791;50.992;13.788;2023-02-18T02:27:11;4.68;;;0.80;;
24663;SDS011;12791;50.992;13.788;2023-02-18T02:30:00;3.63;;;0.73;;
24663;SDS011;12791;50.992;13.788;2023-02-18T02:32:56;1.08;;;0.57;;
24663;SDS011;12791;50.992;13.788;2023-02-18T02:35:43;3.47;;;0.90;;
24663;SDS011;12791;50.992;13.788;2023-02-18T02:38:18;5.68;;;0.85;;
24663;SDS011;12791;50.992;13.788;2023-02-18T02:40:51;2.33;;;0.67;;
24663;SDS011;12791;50.992;13.788;2023-02-18T02:43:24;4.45;;;0.82;;
24663;SDS011;12791;50.992;13.788;2023-02-18T02:46:00;2.15;;;0.80;;
24663;SDS011;12791;50.992;13.788;2023-02-18T02:48:32;7.47;;;1.70;;
24663;SDS011;12791;50.992;13.788;2023-02-18T02:51:09;5.38;;;1.35;;
24663;SDS011;12791;50.992;13.788;2023-02-18T02:53:39;2.85;;;0.88;;
24663;SDS011;12791;50.992;13.788;2023-02-18T02:56:08;6.53;;;1.10;;
24663;SDS011;12791;50.992;13.788;2023-02-18T02:58:38;4.55;;;0.80;;
24663;SDS011;12791;50.992;13.788;2023-02-18T03:01:18;2.58;;;0.70;;
24663;SDS011;12791;50.992;13.788;2023-02-18T03:04:00;5.10;;;1.05;;
24663;SDS011;12791;50.992;13.788;2023-02-18T03:09:29;8.55;;;0.90;;
24663;SDS011;12791;50.992;13.788;2023-02-18T03:12:06;2.92;;;0.73;;
24663;SDS011;12791;50.992;13.788;2023-02-18T03:14:43;6.43;;;0.85;;
24663;SDS011;12791;50.992;13.788;2023-02-18T03:17:17;4.68;;;1.00;;
24663;SDS011;12791;50.992;13.788;2023-02-18T03:19:52;6.75;;;1.00;;
24663;SDS011;12791;50.992;13.788;2023-02-18T03:22:24;3.22;;;0.70;;
24663;SDS011;12791;50.992;13.788;2023-02-18T03:24:54;6.70;;;1.45;;
24663;SDS011;12791;50.992;13.788;2023-02-18T03:27:22;4.85;;;0.80;;
24663;SDS011;12791;50.992;13.788;2023-02-18T03:29:53;3.00;;;0.68;;
24663;SDS011;12791;50.992;13.788;2023-02-18T03:32:22;4.55;;;0.80;;
24663;SDS011;12791;50.992;13.788;2023-02-18T03:34:50;4.03;;;0.73;;
24663;SDS011;12791;50.992;13.788;2023-02-18T03:37:20;4.10;;;0.70;;
24663;SDS011;12791;50.992;13.788;2023-02-18T03:39:50;3.55;;;0.90;;
24663;SDS011;12791;50.992;13.788;2023-02-18T03:42:23;5.63;;;1.33;;
24663;SDS011;12791;50.992;13.788;2023-02-18T03:44:51;5.47;;;0.98;;
24663;SDS011;12791;50.992;13.788;2023-02-18T03:47:17;6.18;;;0.88;;
24663;SDS011;12791;50.992;13.788;2023-02-18T03:49:44;2.03;;;0.80;;
24663;SDS011;12791;50.992;13.788;2023-02-18T03:52:11;5.15;;;1.10;;
24663;SDS011;12791;50.992;13.788;2023-02-18T03:54:37;5.95;;;1.00;;
24663;SDS011;12791;50.992;13.788;2023-02-18T03:57:05;3.47;;;0.90;;
24663;SDS011;12791;50.992;13.788;2023-02-18T03:59:32;3.78;;;0.80;;
24663;SDS011;12791;50.992;13.788;2023-02-18T04:01:59;4.65;;;0.98;;
24663;SDS011;12791;50.992;13.788;2023-02-18T04:04:26;4.38;;;0.90;;
24663;SDS011;12791;50.992;13.788;2023-02-18T04:06:53;8.35;;;1.10;;
24663;SDS011;12791;50.992;13.788;2023-02-18T04:09:20;5.07;;;1.10;;
24663;SDS011;12791;50.992;13.788;2023-02-18T04:11:46;4.53;;;1.02;;
24663;SDS011;12791;50.992;13.788;2023-02-18T04:14:14;4.75;;;1.20;;
24663;SDS011;12791;50.992;13.788;2023-02-18T04:16:41;6.18;;;1.15;;
24663;SDS011;12791;50.992;13.788;2023-02-18T04:19:08;5.82;;;1.17;;
24663;SDS011;12791;50.992;13.788;2023-02-18T04:21:34;4.07;;;1.20;;
24663;SDS011;12791;50.992;13.788;2023-02-18T04:24:01;6.85;;;1.50;;
24663;SDS011;12791;50.992;13.788;2023-02-18T04:26:28;9.02;;;1.73;;
24663;SDS011;12791;50.992;13.788;2023-02-18T04:28:54;8.65;;;1.85;;
24663;SDS011;12791;50.992;13.788;2023-02-18T04:31:22;5.50;;;1.80;;
24663;SDS011;12791;50.992;13.788;2023-02-18T04:33:49;5.10;;;1.77;;
24663;SDS011;12791;50.992;13.788;2023-02-18T04:36:15;4.90;;;1.65;;
24663;SDS011;12791;50.992;13.788;2023-02-18T04:38:42;5.38;;;1.65;;
24663;SDS011;12791;50.992;13.788;2023-02-18T04:41:08;8.77;;;1.88;;
24663;SDS011;12791;50.992;13.788;2023-02-18T04:43:36;5.07;;;2.35;;
24663;SDS011;12791;50.992;13.788;2023-02-18T04:46:03;6.30;;;2.30;;
24663;SDS011;12791;50.992;13.788;2023-02-18T04:48:31;8.50;;;2.50;;
24663;SDS011;12791;50.992;13.788;2023-02-18T04:50:59;5.43;;;2.55;;
24663;SDS011;12791;50.992;13.788;2023-02-18T04:53:25;4.65;;;2.00;;
24663;SDS011;12791;50.992;13.788;2023-02-18T04:55:52;7.03;;;2.80;;
24663;SDS011;12791;50.992;13.788;2023-02-18T04:58:19;5.90;;;2.40;;
24663;SDS011;12791;50.992;13.788;2023-02-18T05:00:46;6.63;;;2.75;;
24663;SDS011;12791;50.992;13.788;2023-02-18T05:03:13;5.30;;;2.47;;
24663;SDS011;12791;50.992;13.788;2023-02-18T05:05:41;6.65;;;2.35;;
24663;SDS011;12791;50.992;13.788;2023-02-18T05:08:08;5.43;;;2.25;;
24663;SDS011;12791;50.992;13.788;2023-02-18T05:10:35;6.45;;;2.17;;
24663;SDS011;12791;50.992;13.788;2023-02-18T05:13:03;7.90;;;2.25;;
24663;SDS011;12791;50.992;13.788;2023-02-18T05:15:30;6.00;;;2.72;;
24663;SDS011;12791;50.992;13.788;2023-02-18T05:17:56;8.23;;;2.40;;
24663;SDS011;12791;50.992;13.788;2023-02-18T05:20:23;7.72;;;2.40;;
24663;SDS011;12791;50.992;13.788;2023-02-18T05:22:51;6.25;;;2.50;;
24663;SDS011;12791;50.992;13.788;2023-02-18T05:25:17;8.10;;;3.33;;
24663;SDS011;12791;50.992;13.788;2023-02-18T05:27:44;6.10;;;2.80;;
24663;SDS011;12791;50.992;13.788;2023-02-18T05:30:11;7.95;;;2.92;;
24663;SDS011;12791;50.992;13.788;2023-02-18T05:32:38;7.68;;;3.35;;
24663;SDS011;12791;50.992;13.788;2023-02-18T05:35:05;8.55;;;3.40;;
24663;SDS011;12791;50.992;13.788;2023-02-18T05:37:32;8.00;;;4.07;;
24663;SDS011;12791;50.992;13.788;2023-02-18T05:40:00;9.23;;;3.85;;
24663;SDS011;12791;50.992;13.788;2023-02-18T05:42:27;9.27;;;3.85;;
24663;SDS011;12791;50.992;13.788;2023-02-18T05:44:53;8.82;;;3.95;;
24663;SDS011;12791;50.992;13.788;2023-02-18T05:47:20;12.25;;;4.65;;
24663;SDS011;12791;50.992;13.788;2023-02-18T05:49:46;12.10;;;4.68;;
24663;SDS011;12791;50.992;13.788;2023-02-18T05:52:14;7.97;;;4.30;;
24663;SDS011;12791;50.992;13.788;2023-02-18T05:54:41;10.25;;;4.18;;
24663;SDS011;12791;50.992;13.788;2023-02-18T05:57:10;8.07;;;4.82;;
24663;SDS011;12791;50.992;13.788;2023-02-18T05:59:39;10.65;;;5.70;;
24663;SDS011;12791;50.992;13.788;2023-02-18T06:02:05;10.73;;;5.65;;
24663;SDS011;12791;50.992;13.788;2023-02-18T06:04:32;9.18;;;5.30;;
24663;SDS011;12791;50.992;13.788;2023-02-18T06:06:59;11.55;;;5.20;;
24663;SDS011;12791;50.992;13.788;2023-02-18T06:09:25;11.02;;;6.32;;
24663;SDS011;12791;50.992;13.788;2023-02-18T06:11:52;11.43;;;5.82;;
24663;SDS011;12791;50.992;13.788;2023-02-18T06:14:20;11.30;;;6.30;;
24663;SDS011;12791;50.992;13.788;2023-02-18T06:16:46;8.80;;;5.88;;
24663;SDS011;12791;50.992;13.788;2023-02-18T06:19:13;8.82;;;6.72;;
24663;SDS011;12791;50.992;13.788;2023-02-18T06:21:39;10.48;;;6.60;;
24663;SDS011;12791;50.992;13.788;2023-02-18T06:24:06;9.85;;;6.90;;
24663;SDS011;12791;50.992;13.788;2023-02-18T06:26:33;9.02;;;6.45;;
24663;SDS011;12791;50.992;13.788;2023-02-18T06:29:00;10.70;;;7.03;;
24663;SDS011;12791;50.992;13.788;2023-02-18T06:31:28;11.07;;;7.03;;
24663;SDS011;12791;50.992;13.788;2023-02-18T06:33:54;10.13;;;6.80;;
24663;SDS011;12791;50.992;13.788;2023-02-18T06:36:21;10.63;;;7.00;;
24663;SDS011;12791;50.992;13.788;2023-02-18T06:38:47;9.82;;;6.53;;
24663;SDS011;12791;50.992;13.788;2023-02-18T06:41:14;14.60;;;7.57;;
24663;SDS011;12791;50.992;13.788;2023-02-18T06:43:41;10.25;;;7.15;;
24663;SDS011;12791;50.992;13.788;2023-02-18T06:46:07;10.10;;;6.82;;
24663;SDS011;12791;50.992;13.788;2023-02-18T06:48:35;10.38;;;7.00;;
24663;SDS011;12791;50.992;13.788;2023-02-18T06:51:03;9.98;;;6.88;;
24663;SDS011;12791;50.992;13.788;2023-02-18T06:53:30;8.40;;;6.80;;
24663;SDS011;12791;50.992;13.788;2023-02-18T06:55:56;12.02;;;7.13;;
24663;SDS011;12791;50.992;13.788;2023-02-18T06:58:23;11.77;;;7.35;;
24663;SDS011;12791;50.992;13.788;2023-02-18T07:00:49;9.98;;;7.25;;
24663;SDS011;12791;50.992;13.788;2023-02-18T07:03:16;10.35;;;7.43;;
24663;SDS011;12791;50.992;13.788;2023-02-18T07:05:44;12.38;;;7.10;;
24663;SDS011;12791;50.992;13.788;2023-02-18T07:08:11;11.57;;;7.38;;
24663;SDS011;12791;50.992;13.788;2023-02-18T07:10:37;11.35;;;7.05;;
24663;SDS011;12791;50.992;13.788;2023-02-18T07:13:04;13.35;;;7.93;;
24663;SDS011;12791;50.992;13.788;2023-02-18T07:15:31;10.35;;;8.23;;
24663;SDS011;12791;50.992;13.788;2023-02-18T07:17:58;7.82;;;7.03;;
24663;SDS011;12791;50.992;13.788;2023-02-18T07:20:25;12.27;;;7.85;;
24663;SDS011;12791;50.992;13.788;2023-02-18T07:22:53;11.68;;;7.43;;
24663;SDS011;12791;50.992;13.788;2023-02-18T07:25:20;11.02;;;7.80;;
24663;SDS011;12791;50.992;13.788;2023-02-18T07:27:47;9.68;;;7.60;;
24663;SDS011;12791;50.992;13.788;2023-02-18T07:30:14;9.32;;;7.18;;
24663;SDS011;12791;50.992;13.788;2023-02-18T07:32:41;14.07;;;8.13;;
24663;SDS011;12791;50.992;13.788;2023-02-18T07:35:09;8.98;;;6.95;;
24663;SDS011;12791;50.992;13.788;2023-02-18T07:37:38;12.07;;;7.95;;
24663;SDS011;12791;50.992;13.788;2023-02-18T07:40:06;10.32;;;7.10;;
24663;SDS011;12791;50.992;13.788;2023-02-18T07:42:35;10.77;;;8.23;;
24663;SDS011;12791;50.992;13.788;2023-02-18T07:45:02;11.07;;;7.85;;
24663;SDS011;12791;50.992;13.788;2023-02-18T07:47:29;11.45;;;8.13;;
24663;SDS011;12791;50.992;13.788;2023-02-18T07:49:55;13.85;;;8.77;;
24663;SDS011;12791;50.992;13.788;2023-02-18T07:52:22;10.40;;;7.93;;
24663;SDS011;12791;50.992;13.788;2023-02-18T07:54:49;12.20;;;9.32;;
24663;SDS011;12791;50.992;13.788;2023-02-18T07:57:17;14.40;;;10.32;;
24663;SDS011;12791;50.992;13.788;2023-02-18T07:59:43;13.38;;;9.63;;
24663;SDS011;12791;50.992;13.788;2023-02-18T08:02:11;13.73;;;9.88;;
24663;SDS011;12791;50.992;13.788;2023-02-18T08:04:42;13.32;;;9.52;;
24663;SDS011;12791;50.992;13.788;2023-02-18T08:07:11;16.00;;;9.18;;
24663;SDS011;12791;50.992;13.788;2023-02-18T08:09:38;11.52;;;9.15;;
24663;SDS011;12791;50.992;13.788;2023-02-18T08:12:05;10.98;;;8.85;;
24663;SDS011;12791;50.992;13.788;2023-02-18T08:14:33;11.27;;;9.15;;
24663;SDS011;12791;50.992;13.788;2023-02-18T08:17:00;11.38;;;8.50;;
24663;SDS011;12791;50.992;13.788;2023-02-18T08:19:26;11.75;;;9.05;;
24663;SDS011;12791;50.992;13.788;2023-02-18T08:21:53;10.52;;;8.77;;
24663;SDS011;12791;50.992;13.788;2023-02-18T08:24:20;10.88;;;8.00;;
24663;SDS011;12791;50.992;13.788;2023-02-18T08:26:46;14.63;;;9.18;;
24663;SDS011;12791;50.992;13.788;2023-02-18T08:29:13;14.25;;;9.07;;
24663;SDS011;12791;50.992;13.788;2023-02-18T08:31:41;11.05;;;9.18;;
24663;SDS011;12791;50.992;13.788;2023-02-18T08:34:07;16.02;;;11.52;;
24663;SDS011;12791;50.992;13.788;2023-02-18T08:36:34;17.00;;;11.93;;
24663;SDS011;12791;50.992;13.788;2023-02-18T08:39:01;18.27;;;13.02;;
24663;SDS011;12791;50.992;13.788;2023-02-18T08:41:28;16.15;;;12.63;;
24663;SDS011;12791;50.992;13.788;2023-02-18T08:43:55;17.45;;;12.48;;
24663;SDS011;12791;50.992;13.788;2023-02-18T08:46:21;20.70;;;13.75;;
24663;SDS011;12791;50.992;13.788;2023-02-18T08:48:49;17.77;;;12.20;;
24663;SDS011;12791;50.992;13.788;2023-02-18T08:51:16;17.60;;;11.32;;
24663;SDS011;12791;50.992;13.788;2023-02-18T08:53:45;15.75;;;11.48;;
24663;SDS011;12791;50.992;13.788;2023-02-18T08:56:12;14.75;;;10.50;;
24663;SDS011;12791;50.992;13.788;2023-02-18T08:58:39;17.25;;;11.35;;
24663;SDS011;12791;50.992;13.788;2023-02-18T09:01:07;13.73;;;10.38;;
24663;SDS011;12791;50.992;13.788;2023-02-18T09:03:35;18.65;;;11.50;;
24663;SDS011;12791;50.992;13.788;2023-02-18T09:06:04;16.02;;;11.73;;
24663;SDS011;12791;50.992;13.788;2023-02-18T09:08:31;16.35;;;11.07;;
24663;SDS011;12791;50.992;13.788;2023-02-18T09:10:58;20.83;;;12.82;;
24663;SDS011;12791;50.992;13.788;2023-02-18T09:13:26;19.35;;;12.50;;
24663;SDS011;12791;50.992;13.788;2023-02-18T09:15:57;15.80;;;11.68;;
24663;SDS011;12791;50.992;13.788;2023-02-18T09:18:24;16.33;;;12.40;;
24663;SDS011;12791;50.992;13.788;2023-02-18T09:20:54;17.52;;;12.18;;
24663;SDS011;12791;50.992;13.788;2023-02-18T09:23:23;16.70;;;12.10;;
24663;SDS011;12791;50.992;13.788;2023-02-18T09:25:50;18.63;;;13.80;;
24663;SDS011;12791;50.992;13.788;2023-02-18T09:28:16;15.52;;;13.55;;
24663;SDS011;12791;50.992;13.788;2023-02-18T09:30:43;26.02;;;14.30;;
24663;SDS011;12791;50.992;13.788;2023-02-18T09:33:10;15.30;;;11.27;;
24663;SDS011;12791;50.992;13.788;2023-02-18T09:35:37;11.60;;;8.35;;
24663;SDS011;12791;50.992;13.788;2023-02-18T09:38:05;15.27;;;8.95;;
24663;SDS011;12791;50.992;13.788;2023-02-18T09:40:34;8.65;;;5.05;;
24663;SDS011;12791;50.992;13.788;2023-02-18T09:43:02;1.65;;;1.55;;
24663;SDS011;12791;50.992;13.788;2023-02-18T09:45:29;0.98;;;0.70;;
24663;SDS011;12791;50.992;13.788;2023-02-18T09:47:55;0.60;;;0.60;;
24663;SDS011;12791;50.992;13.788;2023-02-18T09:50:25;0.68;;;0.60;;
24663;SDS011;12791;50.992;13.788;2023-02-18T09:52:53;0.68;;;0.68;;
24663;SDS011;12791;50.992;13.788;2023-02-18T09:55:21;0.50;;;0.50;;
24663;SDS011;12791;50.992;13.788;2023-02-18T09:57:52;0.63;;;0.60;;
24663;SDS011;12791;50.992;13.788;2023-02-18T10:00:22;1.20;;;0.50;;
24663;SDS011;12791;50.992;13.788;2023-02-18T10:02:54;1.45;;;0.65;;
24663;SDS011;12791;50.992;13.788;2023-02-18T10:05:24;0.60;;;0.50;;
24663;SDS011;12791;50.992;13.788;2023-02-18T10:07:53;0.88;;;0.55;;
24663;SDS011;12791;50.992;13.788;2023-02-18T10:10:27;0.60;;;0.50;;
24663;SDS011;12791;50.992;13.788;2023-02-18T10:13:02;1.55;;;0.50;;
24663;SDS011;12791;50.992;13.788;2023-02-18T10:15:30;0.52;;;0.52;;
24663;SDS011;12791;50.992;13.788;2023-02-18T10:17:58;0.68;;;0.50;;
24663;SDS011;12791;50.992;13.788;2023-02-18T10:20:26;1.30;;;0.55;;
24663;SDS011;12791;50.992;13.788;2023-02-18T10:22:56;0.77;;;0.52;;
24663;SDS011;12791;50.992;13.788;2023-02-18T10:25:26;0.70;;;0.70;;
24663;SDS011;12791;50.992;13.788;2023-02-18T10:27:53;0.40;;;0.40;;
24663;SDS011;12791;50.992;13.788;2023-02-18T10:30:25;0.57;;;0.50;;
24663;SDS011;12791;50.992;13.788;2023-02-18T10:32:59;0.60;;;0.60;;
24663;SDS011;12791;50.992;13.788;2023-02-18T10:35:33;0.40;;;0.40;;
24663;SDS011;12791;50.992;13.788;2023-02-18T10:38:06;0.60;;;0.38;;
24663;SDS011;12791;50.992;13.788;2023-02-18T10:40:41;1.95;;;0.40;;
24663;SDS011;12791;50.992;13.788;2023-02-18T10:43:18;0.35;;;0.30;;
24663;SDS011;12791;50.992;13.788;2023-02-18T10:45:53;0.55;;;0.30;;
24663;SDS011;12791;50.992;13.788;2023-02-18T10:48:33;0.20;;;0.20;;
24663;SDS011;12791;50.992;13.788;2023-02-18T10:51:14;0.60;;;0.30;;
24663;SDS011;12791;50.992;13.788;2023-02-18T10:53:44;0.77;;;0.30;;
24663;SDS011;12791;50.992;13.788;2023-02-18T10:56:30;0.30;;;0.30;;
24663;SDS011;12791;50.992;13.788;2023-02-18T10:59:00;0.55;;;0.30;;
24663;SDS011;12791;50.992;13.788;2023-02-18T11:01:31;0.60;;;0.30;;
24663;SDS011;12791;50.992;13.788;2023-02-18T11:04:04;0.40;;;0.20;;
24663;SDS011;12791;50.992;13.788;2023-02-18T11:06:37;0.22;;;0.22;;
24663;SDS011;12791;50.992;13.788;2023-02-18T11:09:05;0.30;;;0.30;;
24663;SDS011;12791;50.992;13.788;2023-02-18T11:11:35;0.20;;;0.20;;
24663;SDS011;12791;50.992;13.788;2023-02-18T11:14:05;0.30;;;0.30;;
24663;SDS011;12791;50.992;13.788;2023-02-18T11:16:38;0.45;;;0.20;;
24663;SDS011;12791;50.992;13.788;2023-02-18T11:19:15;0.30;;;0.20;;
24663;SDS011;12791;50.992;13.788;2023-02-18T11:22:03;2.70;;;0.40;;
24663;SDS011;12791;50.992;13.788;2023-02-18T11:24:33;0.20;;;0.20;;
24663;SDS011;12791;50.992;13.788;2023-02-18T11:27:06;0.20;;;0.20;;
24663;SDS011;12791;50.992;13.788;2023-02-18T11:29:34;0.35;;;0.22;;
24663;SDS011;12791;50.992;13.788;2023-02-18T11:32:03;0.20;;;0.20;;
24663;SDS011;12791;50.992;13.788;2023-02-18T11:34:30;0.28;;;0.20;;
24663;SDS011;12791;50.992;13.788;2023-02-18T11:37:06;0.10;;;0.10;;
24663;SDS011;12791;50.992;13.788;2023-02-18T11:39:35;0.20;;;0.20;;
24663;SDS011;12791;50.992;13.788;2023-02-18T11:42:06;0.45;;;0.10;;
24663;SDS011;12791;50.992;13.788;2023-02-18T11:44:33;0.10;;;0.10;;
24663;SDS011;12791;50.992;13.788;2023-02-18T11:47:04;0.20;;;0.10;;
24663;SDS011;12791;50.992;13.788;2023-02-18T11:49:32;0.10;;;0.10;;
24663;SDS011;12791;50.992;13.788;2023-02-18T11:52:04;0.20;;;0.20;;
24663;SDS011;12791;50.992;13.788;2023-02-18T11:54:41;0.30;;;0.10;;
24663;SDS011;12791;50.992;13.788;2023-02-18T11:57:09;0.88;;;0.20;;
24663;SDS011;12791;50.992;13.788;2023-02-18T11:59:39;0.20;;;0.20;;
24663;SDS011;12791;50.992;13.788;2023-02-18T12:02:17;0.20;;;0.20;;
24663;SDS011;12791;50.992;13.788;2023-02-18T12:04:55;0.25;;;0.25;;
24663;SDS011;12791;50.992;13.788;2023-02-18T12:07:27;0.25;;;0.25;;
24663;SDS011;12791;50.992;13.788;2023-02-18T12:09:58;0.30;;;0.30;;
24663;SDS011;12791;50.992;13.788;2023-02-18T12:12:29;0.40;;;0.32;;
24663;SDS011;12791;50.992;13.788;2023-02-18T12:14:58;0.40;;;0.40;;
24663;SDS011;12791;50.992;13.788;2023-02-18T12:17:32;0.65;;;0.35;;
24663;SDS011;12791;50.992;13.788;2023-02-18T12:20:14;0.47;;;0.30;;
24663;SDS011;12791;50.992;13.788;2023-02-18T12:22:52;0.82;;;0.60;;
24663;SDS011;12791;50.992;13.788;2023-02-18T12:25:29;0.50;;;0.50;;
24663;SDS011;12791;50.992;13.788;2023-02-18T12:28:14;0.70;;;0.70;;
24663;SDS011;12791;50.992;13.788;2023-02-18T12:31:02;0.77;;;0.40;;
24663;SDS011;12791;50.992;13.788;2023-02-18T12:33:57;0.55;;;0.55;;
24663;SDS011;12791;50.992;13.788;2023-02-18T12:36:36;0.80;;;0.65;;
24663;SDS011;12791;50.992;13.788;2023-02-18T12:39:17;0.70;;;0.70;;
24663;SDS011;12791;50.992;13.788;2023-02-18T12:41:58;0.88;;;0.88;;
24663;SDS011;12791;50.992;13.788;2023-02-18T12:44:33;1.10;;;0.80;;
24663;SDS011;12791;50.992;13.788;2023-02-18T12:52:58;1.13;;;0.80;;
24663;SDS011;12791;50.992;13.788;2023-02-18T12:55:38;1.00;;;0.68;;
24663;SDS011;12791;50.992;13.788;2023-02-18T12:58:18;0.88;;;0.88;;
24663;SDS011;12791;50.992;13.788;2023-02-18T13:03:53;1.00;;;1.00;;
24663;SDS011;12791;50.992;13.788;2023-02-18T13:06:49;1.00;;;1.00;;
24663;SDS011;12791;50.992;13.788;2023-02-18T13:09:27;2.83;;;1.17;;
24663;SDS011;12791;50.992;13.788;2023-02-18T13:12:05;1.30;;;1.00;;
24663;SDS011;12791;50.992;13.788;2023-02-18T13:14:40;1.08;;;0.98;;
24663;SDS011;12791;50.992;13.788;2023-02-18T13:17:11;0.73;;;0.70;;
24663;SDS011;12791;50.992;13.788;2023-02-18T13:19:41;1.58;;;0.70;;
24663;SDS011;12791;50.992;13.788;2023-02-18T13:22:14;1.10;;;0.60;;
24663;SDS011;12791;50.992;13.788;2023-02-18T13:24:46;0.60;;;0.60;;
24663;SDS011;12791;50.992;13.788;2023-02-18T13:27:16;0.70;;;0.70;;
24663;SDS011;12791;50.992;13.788;2023-02-18T13:29:51;1.42;;;0.55;;
24663;SDS011;12791;50.992;13.788;2023-02-18T13:32:30;0.88;;;0.50;;
24663;SDS011;12791;50.992;13.788;2023-02-18T13:35:04;0.65;;;0.50;;
24663;SDS011;12791;50.992;13.788;2023-02-18T13:37:47;0.30;;;0.30;;
24663;SDS011;12791;50.992;13.788;2023-02-18T13:40:25;1.13;;;0.60;;
24663;SDS011;12791;50.992;13.788;2023-02-18T13:42:54;0.82;;;0.45;;
24663;SDS011;12791;50.992;13.788;2023-02-18T13:48:46;0.63;;;0.47;;
24663;SDS011;12791;50.992;13.788;2023-02-18T13:51:15;0.98;;;0.60;;
24663;SDS011;12791;50.992;13.788;2023-02-18T13:53:53;0.50;;;0.50;;
24663;SDS011;12791;50.992;13.788;2023-02-18T13:56:26;1.02;;;0.70;;
24663;SDS011;12791;50.992;13.788;2023-02-18T13:58:58;4.38;;;0.98;;
24663;SDS011;12791;50.992;13.788;2023-02-18T14:01:36;0.82;;;0.50;;
24663;SDS011;12791;50.992;13.788;2023-02-18T14:09:50;0.40;;;0.40;;
24663;SDS011;12791;50.992;13.788;2023-02-18T14:12:25;0.98;;;0.50;;
24663;SDS011;12791;50.992;13.788;2023-02-18T14:15:02;0.50;;;0.40;;
24663;SDS011;12791;50.992;13.788;2023-02-18T14:17:55;1.05;;;0.40;;
24663;SDS011;12791;50.992;13.788;2023-02-18T14:20:45;1.08;;;0.50;;
24663;SDS011;12791;50.992;13.788;2023-02-18T14:26:22;0.47;;;0.47;;
24663;SDS011;12791;50.992;13.788;2023-02-18T14:28:54;0.82;;;0.45;;
24663;SDS011;12791;50.992;13.788;2023-02-18T14:31:31;0.40;;;0.40;;
24663;SDS011;12791;50.992;13.788;2023-02-18T14:34:17;1.17;;;0.40;;
24663;SDS011;12791;50.992;13.788;2023-02-18T14:39:37;0.60;;;0.45;;
24663;SDS011;12791;50.992;13.788;2023-02-18T14:42:16;0.52;;;0.40;;
24663;SDS011;12791;50.992;13.788;2023-02-18T14:44:58;0.60;;;0.60;;
24663;SDS011;12791;50.992;13.788;2023-02-18T14:47:41;2.03;;;0.77;;
24663;SDS011;12791;50.992;13.788;2023-02-18T14:50:19;0.40;;;0.30;;
24663;SDS011;12791;50.992;13.788;2023-02-18T14:52:47;1.02;;;0.40;;
24663;SDS011;12791;50.992;13.788;2023-02-18T14:55:17;0.77;;;0.52;;
24663;SDS011;12791;50.992;13.788;2023-02-18T14:57:47;0.65;;;0.40;;
24663;SDS011;12791;50.992;13.788;2023-02-18T15:00:17;1.52;;;0.40;;
24663;SDS011;12791;50.992;13.788;2023-02-18T15:02:48;0.40;;;0.40;;
24663;SDS011;12791;50.992;13.788;2023-02-18T15:05:17;0.50;;;0.40;;
24663;SDS011;12791;50.992;13.788;2023-02-18T15:07:55;0.50;;;0.32;;
24663;SDS011;12791;50.992;13.788;2023-02-18T15:10:25;2.20;;;0.45;;
24663;SDS011;12791;50.992;13.788;2023-02-18T15:12:59;1.58;;;0.40;;
24663;SDS011;12791;50.992;13.788;2023-02-18T15:15:27;0.95;;;0.40;;
24663;SDS011;12791;50.992;13.788;2023-02-18T15:17:55;0.57;;;0.43;;
24663;SDS011;12791;50.992;13.788;2023-02-18T15:20:22;1.58;;;0.50;;